createdAt,value
2022-09-26T00:00:18.583Z,91.00
2022-09-26T00:02:51.980Z,90.92
2022-09-26T00:05:20.333Z,91.15
2022-09-26T00:07:49.081Z,91.09
2022-09-26T00:10:18.910Z,91.08
2022-09-26T00:12:47.327Z,91.16
2022-09-26T00:15:21.576Z,91.29
2022-09-26T00:17:51.276Z,91.30
2022-09-26T00:20:22.564Z,91.50
2022-09-26T00:22:51.684Z,91.37
2022-09-26T00:25:22.859Z,91.59
2022-09-26T00:27:53.507Z,91.08
2022-09-26T00:30:24.643Z,91.18
2022-09-26T00:32:53.018Z,91.22
2022-09-26T00:35:26.894Z,91.51
2022-09-26T00:37:55.301Z,91.80
2022-09-26T00:40:28.149Z,91.70
2022-09-26T00:42:56.907Z,91.65
2022-09-26T00:45:30.202Z,91.76
2022-09-26T00:48:03.317Z,91.92
2022-09-26T00:50:34.766Z,91.65
2022-09-26T00:53:06.410Z,92.14
2022-09-26T00:55:44.472Z,91.78
2022-09-26T00:58:15.968Z,91.61
2022-09-26T01:00:48.828Z,91.56
2022-09-26T01:03:22.106Z,91.76
2022-09-26T01:05:50.914Z,91.72
2022-09-26T01:08:24.303Z,91.78
2022-09-26T01:10:55.919Z,91.71
2022-09-26T01:13:24.562Z,92.19
2022-09-26T01:15:56.011Z,92.09
2022-09-26T01:18:24.418Z,91.96
2022-09-26T01:20:56.951Z,91.81
2022-09-26T01:23:47.286Z,91.88
2022-09-26T01:26:54.898Z,91.64
2022-09-26T01:30:01.982Z,91.43
2022-09-26T01:33:01.183Z,91.28
2022-09-26T01:35:46.992Z,90.90
2022-09-26T01:38:27.367Z,91.23
2022-09-26T01:41:10.163Z,91.48
2022-09-26T01:43:43.358Z,91.43
2022-09-26T01:46:25.247Z,91.45
2022-09-26T01:49:04.384Z,91.47
2022-09-26T01:51:37.591Z,91.41
2022-09-26T01:54:14.472Z,91.50
2022-09-26T01:56:47.599Z,91.94
2022-09-26T01:59:22.208Z,91.95
2022-09-26T02:01:58.138Z,91.62
2022-09-26T02:04:31.112Z,91.90
2022-09-26T02:07:03.352Z,91.86
2022-09-26T02:09:37.808Z,91.60
2022-09-26T02:12:10.048Z,91.55
2022-09-26T02:14:45.776Z,91.48
2022-09-26T02:17:18.213Z,91.20
2022-09-26T02:19:53.322Z,90.96
2022-09-26T02:22:25.526Z,91.06
2022-09-26T02:24:56.878Z,90.84
2022-09-26T02:27:28.930Z,90.70
2022-09-26T02:29:59.388Z,90.88
2022-09-26T02:32:30.743Z,90.46
2022-09-26T02:35:24.292Z,90.58
2022-09-26T02:37:54.299Z,90.72
2022-09-26T02:40:34.839Z,90.70
2022-09-26T02:43:13.603Z,91.01
2022-09-26T02:45:46.196Z,90.75
2022-09-26T02:48:32.942Z,91.05
2022-09-26T02:51:10.758Z,90.97
2022-09-26T02:53:56.061Z,91.09
2022-09-26T02:56:46.941Z,91.41
2022-09-26T02:59:22.791Z,91.08
2022-09-26T03:01:59.246Z,90.88
2022-09-26T03:04:34.307Z,91.30
2022-09-26T03:07:10.290Z,91.11
2022-09-26T03:09:45.252Z,91.33
2022-09-26T03:12:16.846Z,91.46
2022-09-26T03:14:46.264Z,91.26
2022-09-26T03:17:15.964Z,91.07
2022-09-26T03:19:47.453Z,91.67
2022-09-26T03:22:17.981Z,91.69
2022-09-26T03:24:47.021Z,91.55
2022-09-26T03:27:18.922Z,91.80
2022-09-26T03:29:53.440Z,91.39
2022-09-26T03:32:25.807Z,91.62
2022-09-26T03:35:06.203Z,91.62
2022-09-26T03:37:42.542Z,91.20
2022-09-26T03:40:13.075Z,91.45
2022-09-26T03:43:13.459Z,91.37
2022-09-26T03:45:43.356Z,91.32
2022-09-26T03:48:18.873Z,91.08
2022-09-26T03:50:50.594Z,91.18
2022-09-26T03:53:22.631Z,91.32
2022-09-26T03:55:55.038Z,91.41
2022-09-26T03:58:23.711Z,91.45
2022-09-26T04:00:57.061Z,91.29
2022-09-26T04:03:29.571Z,91.26
2022-09-26T04:05:58.268Z,90.99
2022-09-26T04:08:30.500Z,91.22
2022-09-26T04:11:07.222Z,91.22
2022-09-26T04:13:53.204Z,91.05
2022-09-26T04:16:35.392Z,90.85
2022-09-26T04:19:14.482Z,90.76
2022-09-26T04:21:45.269Z,90.93
2022-09-26T04:24:21.489Z,90.67
2022-09-26T04:26:51.912Z,90.38
2022-09-26T04:29:23.149Z,90.51
2022-09-26T04:32:08.607Z,90.64
2022-09-26T04:34:47.630Z,90.59
2022-09-26T04:37:16.080Z,90.16
2022-09-26T04:39:47.860Z,90.18
2022-09-26T04:42:16.709Z,89.95
2022-09-26T04:44:48.482Z,89.69
2022-09-26T04:47:18.175Z,89.75
2022-09-26T04:50:18.856Z,89.67
2022-09-26T04:53:07.478Z,89.31
2022-09-26T04:55:46.918Z,89.59
2022-09-26T04:58:17.621Z,89.20
2022-09-26T05:00:50.469Z,88.89
2022-09-26T05:03:31.359Z,89.00
2022-09-26T05:06:01.244Z,88.48
2022-09-26T05:08:29.705Z,88.04
2022-09-26T05:11:05.027Z,88.23
2022-09-26T05:13:40.361Z,88.29
2022-09-26T05:16:15.403Z,88.20
2022-09-26T05:18:45.619Z,87.52
2022-09-26T05:21:19.644Z,88.01
2022-09-26T05:24:05.849Z,88.16
2022-09-26T05:26:47.667Z,87.35
2022-09-26T05:29:20.508Z,87.28
2022-09-26T05:31:55.514Z,87.35
2022-09-26T05:34:28.436Z,86.76
2022-09-26T05:37:00.272Z,87.11
2022-09-26T05:39:46.389Z,87.07
2022-09-26T05:42:17.219Z,87.45
2022-09-26T05:44:45.870Z,86.81
2022-09-26T05:47:18.600Z,87.12
2022-09-26T05:49:49.500Z,87.07
2022-09-26T05:52:22.938Z,86.22
2022-09-26T05:54:53.352Z,86.58
2022-09-26T05:57:58.687Z,86.32
2022-09-26T06:00:38.647Z,85.53
2022-09-26T06:03:07.672Z,85.80
2022-09-26T06:05:58.694Z,85.49
2022-09-26T06:08:31.159Z,85.55
2022-09-26T06:11:20.981Z,85.74
2022-09-26T06:13:51.179Z,85.22
2022-09-26T06:16:21.605Z,85.56
2022-09-26T06:18:53.427Z,84.69
2022-09-26T06:21:24.430Z,84.26
2022-09-26T06:24:03.127Z,83.71
2022-09-26T06:26:33.349Z,84.44
2022-09-26T06:29:05.621Z,84.55
2022-09-26T06:31:37.179Z,84.70
2022-09-26T06:34:14.687Z,84.68
2022-09-26T06:37:10.245Z,84.54
2022-09-26T06:39:40.328Z,84.56
2022-09-26T06:42:09.311Z,83.92
2022-09-26T06:44:52.931Z,84.24
2022-09-26T06:47:27.597Z,83.25
2022-09-26T06:50:22.288Z,83.40
2022-09-26T06:52:57.455Z,83.06
2022-09-26T06:55:27.637Z,83.01
2022-09-26T06:57:58.675Z,83.15
2022-09-26T07:00:35.760Z,83.12
2022-09-26T07:03:21.160Z,83.98
2022-09-26T07:05:58.487Z,83.39
2022-09-26T07:08:50.413Z,82.84
2022-09-26T07:14:18.557Z,82.61
2022-09-26T07:16:55.276Z,82.04
2022-09-26T07:19:43.868Z,80.79
2022-09-26T07:22:33.353Z,81.04
2022-09-26T07:25:02.036Z,80.86
2022-09-26T07:27:34.676Z,81.10
2022-09-26T07:30:06.707Z,80.47
2022-09-26T07:32:49.958Z,80.30
2022-09-26T07:35:46.252Z,79.31
2022-09-26T07:38:15.064Z,79.69
2022-09-26T07:40:44.202Z,80.00
2022-09-26T07:43:20.189Z,78.85
2022-09-26T07:46:11.432Z,78.41
2022-09-26T07:49:02.559Z,79.49
2022-09-26T07:51:49.814Z,79.32
2022-09-26T07:54:24.635Z,80.30
2022-09-26T07:57:17.225Z,80.78
2022-09-26T08:00:05.537Z,79.87
2022-09-26T08:03:02.544Z,81.32
2022-09-26T08:05:45.085Z,81.60
2022-09-26T08:08:14.832Z,82.30
2022-09-26T08:11:04.311Z,82.50
2022-09-26T08:13:51.788Z,83.78
2022-09-26T08:16:41.864Z,84.25
2022-09-26T08:19:17.584Z,85.31
2022-09-26T08:21:51.190Z,85.02
2022-09-26T08:24:21.184Z,85.52
2022-09-26T08:26:50.055Z,86.64
2022-09-26T08:29:25.922Z,86.31
2022-09-26T08:32:01.177Z,86.45
2022-09-26T08:34:35.449Z,86.23
2022-09-26T08:37:34.214Z,84.63
2022-09-26T08:40:25.264Z,84.18
2022-09-26T08:43:21.355Z,83.96
2022-09-26T08:46:45.181Z,83.18
2022-09-26T08:49:55.547Z,82.39
2022-09-26T08:52:34.007Z,81.38
2022-09-26T08:55:06.626Z,81.03
2022-09-26T08:57:40.127Z,81.01
2022-09-26T09:00:19.531Z,80.96
2022-09-26T09:03:04.006Z,81.68
2022-09-26T09:05:34.981Z,81.31
2022-09-26T09:08:08.235Z,81.71
2022-09-26T09:10:47.532Z,82.19
2022-09-26T09:13:47.469Z,82.34
2022-09-26T09:16:57.426Z,82.51
2022-09-26T09:20:03.867Z,82.00
2022-09-26T09:23:17.302Z,81.70
2022-09-26T09:25:51.505Z,80.52
2022-09-26T09:28:33.561Z,79.13
2022-09-26T09:31:08.245Z,78.72
2022-09-26T09:33:53.075Z,78.72
2022-09-26T09:36:43.482Z,79.42
2022-09-26T09:39:32.716Z,79.62
2022-09-26T09:42:12.076Z,79.62
2022-09-26T09:44:50.535Z,79.64
2022-09-26T09:47:20.124Z,78.82
2022-09-26T09:49:53.045Z,77.88
2022-09-26T09:52:36.762Z,77.28
2022-09-26T09:55:18.346Z,78.32
2022-09-26T09:58:11.447Z,78.28
2022-09-26T10:00:56.348Z,79.02
2022-09-26T10:03:41.531Z,78.49
2022-09-26T10:06:45.793Z,78.20
2022-09-26T10:09:39.309Z,78.46
2022-09-26T10:12:27.033Z,77.67
2022-09-26T10:15:22.343Z,75.87
2022-09-26T10:18:24.632Z,76.04
2022-09-26T10:21:19.111Z,75.51
2022-09-26T10:23:53.069Z,76.09
2022-09-26T10:26:43.054Z,75.71
2022-09-26T10:29:23.591Z,75.05
2022-09-26T10:31:56.785Z,74.09
2022-09-26T10:34:38.384Z,73.90
2022-09-26T10:37:25.987Z,74.89
2022-09-26T10:40:20.420Z,74.80
2022-09-26T10:42:52.696Z,75.29
2022-09-26T10:45:30.740Z,75.92
2022-09-26T10:48:38.235Z,75.44
2022-09-26T10:51:32.485Z,75.47
2022-09-26T10:54:13.557Z,74.19
2022-09-26T10:56:54.487Z,74.50
2022-09-26T10:59:30.362Z,74.45
2022-09-26T11:02:04.489Z,75.00
2022-09-26T11:04:51.307Z,74.82
2022-09-26T11:07:40.845Z,74.79
2022-09-26T11:10:45.448Z,74.72
2022-09-26T11:13:41.113Z,75.29
2022-09-26T11:16:17.225Z,77.97
2022-09-26T11:18:57.039Z,80.65
2022-09-26T11:21:30.530Z,81.29
2022-09-26T11:24:05.373Z,83.24
2022-09-26T11:26:39.784Z,84.93
2022-09-26T11:29:19.033Z,85.79
2022-09-26T11:32:05.230Z,85.18
2022-09-26T11:35:13.692Z,85.81
2022-09-26T11:38:16.611Z,85.00
2022-09-26T11:41:38.794Z,85.09
2022-09-26T11:44:36.108Z,85.74
2022-09-26T11:47:41.635Z,85.77
2022-09-26T11:50:40.056Z,86.79
2022-09-26T11:53:44.459Z,86.28
2022-09-26T11:56:27.638Z,86.07
2022-09-26T11:59:01.014Z,86.11
2022-09-26T12:01:38.290Z,85.94
2022-09-26T12:04:21.747Z,85.98
2022-09-26T12:06:56.202Z,84.21
2022-09-26T12:09:49.166Z,83.50
2022-09-26T12:12:21.924Z,82.64
2022-09-26T12:15:02.421Z,83.13
2022-09-26T12:17:42.590Z,82.53
2022-09-26T12:20:27.978Z,82.83
2022-09-26T12:23:01.633Z,82.95
2022-09-26T12:25:37.372Z,82.24
2022-09-26T12:28:16.711Z,81.21
2022-09-26T12:30:52.462Z,80.46
2022-09-26T12:33:49.732Z,79.82
2022-09-26T12:36:26.202Z,80.10
2022-09-26T12:39:08.598Z,80.38
2022-09-26T12:41:51.901Z,79.48
2022-09-26T12:44:33.950Z,79.24
2022-09-26T12:47:14.193Z,79.65
2022-09-26T12:49:58.344Z,80.75
2022-09-26T12:52:37.767Z,79.55
2022-09-26T12:55:23.590Z,79.74
2022-09-26T12:58:06.022Z,79.17
2022-09-26T13:00:40.909Z,79.57
2022-09-26T13:03:39.986Z,79.95
2022-09-26T13:06:29.575Z,81.27
2022-09-26T13:09:08.250Z,81.49
2022-09-26T13:11:45.979Z,81.79
2022-09-26T13:14:34.100Z,80.66
2022-09-26T13:17:10.013Z,80.99
2022-09-26T13:19:42.340Z,81.53
2022-09-26T13:22:33.190Z,80.72
2022-09-26T13:25:08.379Z,82.05
2022-09-26T13:27:41.523Z,82.11
2022-09-26T13:30:15.334Z,82.02
2022-09-26T13:32:53.325Z,83.02
2022-09-26T13:35:24.151Z,82.37
2022-09-26T13:38:10.271Z,83.26
2022-09-26T13:40:42.935Z,83.29
2022-09-26T13:43:23.301Z,81.53
2022-09-26T13:46:02.459Z,81.60
2022-09-26T13:48:38.756Z,81.41
2022-09-26T13:51:17.516Z,82.04
2022-09-26T13:53:53.673Z,81.16
2022-09-26T13:56:51.733Z,80.34
2022-09-26T13:59:54.501Z,80.00
2022-09-26T14:02:26.610Z,79.89
2022-09-26T14:04:55.838Z,79.68
2022-09-26T14:07:44.300Z,80.35
2022-09-26T14:10:21.862Z,80.70
2022-09-26T14:12:56.773Z,81.24
2022-09-26T14:15:28.937Z,80.49
2022-09-26T14:18:23.366Z,80.47
2022-09-26T14:21:00.506Z,80.62
2022-09-26T14:23:43.582Z,81.11
2022-09-26T14:26:14.772Z,81.19
2022-09-26T14:28:51.557Z,81.46
2022-09-26T14:31:39.866Z,82.51
2022-09-26T14:34:20.923Z,83.06
2022-09-26T14:36:49.921Z,83.13
2022-09-26T14:39:29.419Z,83.61
2022-09-26T14:41:59.035Z,84.23
2022-09-26T14:44:36.333Z,84.58
2022-09-26T14:47:09.665Z,84.60
2022-09-26T14:49:38.241Z,85.42
2022-09-26T14:52:13.061Z,85.93
2022-09-26T14:54:42.126Z,86.20
2022-09-26T14:57:21.633Z,86.44
2022-09-26T14:59:50.331Z,86.98
2022-09-26T15:02:26.168Z,87.57
2022-09-26T15:05:11.642Z,87.86
2022-09-26T15:07:44.723Z,87.84
2022-09-26T15:10:23.805Z,88.19
2022-09-26T15:12:59.152Z,88.33
2022-09-26T15:15:39.497Z,89.14
2022-09-26T15:18:18.433Z,89.30
2022-09-26T15:20:59.372Z,89.36
2022-09-26T15:23:33.881Z,89.53
2022-09-26T15:26:03.860Z,89.05
2022-09-26T15:28:34.919Z,88.92
2022-09-26T15:31:21.298Z,88.54
2022-09-26T15:33:53.496Z,88.79
2022-09-26T15:36:22.067Z,88.62
2022-09-26T15:38:50.545Z,88.40
2022-09-26T15:41:40.322Z,88.47
2022-09-26T15:44:08.941Z,88.98
2022-09-26T15:46:37.519Z,88.78
2022-09-26T15:49:14.965Z,88.99
2022-09-26T15:51:45.331Z,89.18
2022-09-26T15:54:21.680Z,89.40
2022-09-26T15:56:52.055Z,89.41
2022-09-26T15:59:22.610Z,89.73
2022-09-26T16:01:52.612Z,89.54
2022-09-26T16:04:24.260Z,89.55
2022-09-26T16:06:55.508Z,89.60
2022-09-26T16:09:26.243Z,89.56
2022-09-26T16:11:56.444Z,89.79
2022-09-26T16:14:28.149Z,89.47
2022-09-26T16:17:02.726Z,89.60
2022-09-26T16:19:35.546Z,89.63
2022-09-26T16:22:29.548Z,89.88
2022-09-26T16:25:18.339Z,89.64
2022-09-26T16:27:47.712Z,89.80
2022-09-26T16:30:39.007Z,89.73
2022-09-26T16:33:31.725Z,89.99
2022-09-26T16:36:20.693Z,90.36
2022-09-26T16:38:54.173Z,90.07
2022-09-26T16:41:49.318Z,90.22
2022-09-26T16:44:27.384Z,90.31
2022-09-26T16:46:59.050Z,90.64
2022-09-26T16:49:34.617Z,90.69
2022-09-26T16:52:32.045Z,90.75
2022-09-26T16:55:01.924Z,91.14
2022-09-26T16:57:34.036Z,91.00
2022-09-26T17:00:23.393Z,91.08
2022-09-26T17:02:52.145Z,91.07
2022-09-26T17:05:24.959Z,90.93
2022-09-26T17:07:58.207Z,91.30
2022-09-26T17:10:27.381Z,91.60
2022-09-26T17:12:56.486Z,91.36
2022-09-26T17:15:28.392Z,91.59
2022-09-26T17:18:00.181Z,91.16
2022-09-26T17:20:29.449Z,91.60
2022-09-26T17:23:16.843Z,91.42
2022-09-26T17:25:55.445Z,91.57
2022-09-26T17:28:30.460Z,91.67
2022-09-26T17:31:07.115Z,91.93
2022-09-26T17:33:41.842Z,92.17
2022-09-26T17:36:17.534Z,91.99
2022-09-26T17:38:47.897Z,92.41
2022-09-26T17:41:29.891Z,92.20
2022-09-26T17:44:00.925Z,92.34
2022-09-26T17:46:30.395Z,92.43
2022-09-26T17:49:01.593Z,92.54
2022-09-26T17:51:34.532Z,92.28
2022-09-26T17:54:13.473Z,92.82
2022-09-26T17:56:46.393Z,92.67
2022-09-26T17:59:24.926Z,92.44
2022-09-26T18:01:55.496Z,92.42
2022-09-26T18:04:27.136Z,92.34
2022-09-26T18:06:57.099Z,92.20
2022-09-26T18:09:29.436Z,92.44
2022-09-26T18:12:03.021Z,92.55
2022-09-26T18:14:35.247Z,92.52
2022-09-26T18:17:04.633Z,92.41
2022-09-26T18:19:35.328Z,92.69
2022-09-26T18:22:03.830Z,92.75
2022-09-26T18:24:36.241Z,92.83
2022-09-26T18:27:09.160Z,93.00
2022-09-26T18:29:42.059Z,92.92
2022-09-26T18:32:18.069Z,92.79
2022-09-26T18:34:46.605Z,93.14
2022-09-26T18:37:18.425Z,93.20
2022-09-26T18:40:02.961Z,93.16
2022-09-26T18:42:36.708Z,93.72
2022-09-26T18:45:08.811Z,93.60
2022-09-26T18:47:40.537Z,93.54
2022-09-26T18:50:15.098Z,93.83
2022-09-26T18:52:43.987Z,93.80
2022-09-26T18:55:37.046Z,93.41
2022-09-26T18:58:27.686Z,93.40
2022-09-26T19:00:59.165Z,93.55
2022-09-26T19:03:29.666Z,93.86
2022-09-26T19:06:03.602Z,93.67
2022-09-26T19:08:35.399Z,93.75
2022-09-26T19:11:14.215Z,93.63
2022-09-26T19:13:46.247Z,93.82
2022-09-26T19:16:16.468Z,93.60
2022-09-26T19:18:45.811Z,93.65
2022-09-26T19:21:20.336Z,93.87
2022-09-26T19:23:49.747Z,93.44
2022-09-26T19:26:27.759Z,93.93
2022-09-26T19:29:03.875Z,93.39
2022-09-26T19:31:32.569Z,93.84
2022-09-26T19:34:01.673Z,93.52
2022-09-26T19:36:30.631Z,93.86
2022-09-26T19:38:59.137Z,93.55
2022-09-26T19:41:29.305Z,93.46
2022-09-26T19:44:00.342Z,93.53
2022-09-26T19:46:30.663Z,93.78
2022-09-26T19:49:00.973Z,93.80
2022-09-26T19:51:37.317Z,94.21
2022-09-26T19:54:11.087Z,94.33
2022-09-26T19:56:41.104Z,93.82
2022-09-26T19:59:12.896Z,94.19
2022-09-26T20:01:42.368Z,94.24
2022-09-26T20:04:15.339Z,94.56
2022-09-26T20:06:44.268Z,94.08
2022-09-26T20:09:19.231Z,94.38
2022-09-26T20:11:52.399Z,94.35
2022-09-26T20:14:27.129Z,94.39
2022-09-26T20:17:01.085Z,94.43
2022-09-26T20:19:33.425Z,94.31
2022-09-26T20:22:08.066Z,94.53
2022-09-26T20:24:39.957Z,94.84
2022-09-26T20:27:15.877Z,94.59
2022-09-26T20:30:02.276Z,94.74
2022-09-26T20:32:33.465Z,94.41
2022-09-26T20:35:04.957Z,94.64
2022-09-26T20:37:36.307Z,94.35
2022-09-26T20:40:08.671Z,94.64
2022-09-26T20:42:39.843Z,94.33
2022-09-26T20:45:16.571Z,94.39
2022-09-26T20:47:49.381Z,94.65
2022-09-26T20:50:20.937Z,94.76
2022-09-26T20:52:52.008Z,94.88
2022-09-26T20:55:21.340Z,94.84
2022-09-26T20:57:51.640Z,94.66
2022-09-26T21:00:21.957Z,94.76
2022-09-26T21:02:52.992Z,94.89
2022-09-26T21:05:24.654Z,95.15
2022-09-26T21:07:53.424Z,94.72
2022-09-26T21:10:28.605Z,94.55
2022-09-26T21:12:59.522Z,94.51
2022-09-26T21:15:30.147Z,94.50
2022-09-26T21:18:00.984Z,94.78
2022-09-26T21:20:32.963Z,94.69
2022-09-26T21:23:24.329Z,94.81
2022-09-26T21:25:52.834Z,94.95
2022-09-26T21:28:26.822Z,94.57
2022-09-26T21:30:56.609Z,94.35
2022-09-26T21:33:25.298Z,94.51
2022-09-26T21:35:54.208Z,94.25
2022-09-26T21:38:23.061Z,94.46
2022-09-26T21:40:54.743Z,94.88
2022-09-26T21:43:28.905Z,94.18
2022-09-26T21:45:57.372Z,94.60
2022-09-26T21:48:26.229Z,94.77
2022-09-26T21:50:58.215Z,94.65
2022-09-26T21:53:32.589Z,94.55
2022-09-26T21:56:07.655Z,94.87
2022-09-26T21:58:40.217Z,94.62
2022-09-26T22:01:09.158Z,94.79
2022-09-26T22:03:40.146Z,94.54
2022-09-26T22:06:10.617Z,94.78
2022-09-26T22:08:40.617Z,94.96
2022-09-26T22:11:12.240Z,94.84
2022-09-26T22:13:42.222Z,95.01
2022-09-26T22:16:12.894Z,94.72
2022-09-26T22:18:46.731Z,95.25
2022-09-26T22:21:18.574Z,95.43
2022-09-26T22:23:52.722Z,95.60
2022-09-26T22:26:22.081Z,95.18
2022-09-26T22:28:52.372Z,95.15
2022-09-26T22:31:21.188Z,95.29
2022-09-26T22:33:49.815Z,94.80
2022-09-26T22:36:21.664Z,95.42
2022-09-26T22:38:52.997Z,94.98
2022-09-26T22:41:24.780Z,95.21
2022-09-26T22:43:55.632Z,95.63
2022-09-26T22:46:24.260Z,95.58
2022-09-26T22:48:55.694Z,95.16
2022-09-26T22:51:26.856Z,95.41
2022-09-26T22:53:55.336Z,95.40
2022-09-26T22:56:25.667Z,95.84
2022-09-26T22:58:55.883Z,95.67
2022-09-26T23:01:29.157Z,95.79
2022-09-26T23:04:00.461Z,95.72
2022-09-26T23:06:29.151Z,95.90
2022-09-26T23:08:59.219Z,95.21
2022-09-26T23:11:28.098Z,95.99
2022-09-26T23:13:58.035Z,95.09
2022-09-26T23:16:29.381Z,95.56
2022-09-26T23:18:59.088Z,95.27
2022-09-26T23:21:29.166Z,95.56
2022-09-26T23:23:59.236Z,95.56
2022-09-26T23:26:33.214Z,95.31
2022-09-26T23:29:06.850Z,94.99
2022-09-26T23:31:38.158Z,95.16
2022-09-26T23:34:07.167Z,95.05
2022-09-26T23:36:38.345Z,95.43
2022-09-26T23:39:07.201Z,95.44
2022-09-26T23:41:35.891Z,95.58
2022-09-26T23:44:05.787Z,95.71
2022-09-26T23:46:34.747Z,95.06
2022-09-26T23:49:03.386Z,94.85
2022-09-26T23:51:34.519Z,94.81
2022-09-26T23:54:03.477Z,95.13
2022-09-26T23:56:32.037Z,95.16
2022-09-26T23:59:00.632Z,95.16
